createdAt,value
2023-02-03T00:02:44.990Z,2.92
2023-02-03T00:06:47.177Z,3.20
2023-02-03T00:10:48.956Z,3.40
2023-02-03T00:14:50.408Z,3.28
2023-02-03T00:18:51.868Z,2.88
2023-02-03T00:22:53.258Z,3.53
2023-02-03T00:26:54.905Z,4.13
2023-02-03T00:30:56.317Z,3.47
2023-02-03T00:34:57.950Z,2.50
2023-02-03T00:39:00.649Z,4.07
2023-02-03T00:43:02.216Z,3.97
2023-02-03T00:47:03.661Z,3.97
2023-02-03T00:51:05.503Z,4.25
2023-02-03T00:55:07.621Z,3.13
2023-02-03T00:59:09.170Z,3.72
2023-02-03T01:03:10.810Z,4.00
2023-02-03T01:07:12.380Z,4.53
2023-02-03T01:11:17.258Z,2.83
2023-02-03T01:15:18.885Z,3.35
2023-02-03T01:19:20.436Z,4.28
2023-02-03T01:23:21.896Z,5.13
2023-02-03T01:27:23.624Z,3.20
2023-02-03T01:31:27.304Z,5.45
2023-02-03T01:35:28.794Z,5.00
2023-02-03T01:39:30.319Z,5.20
2023-02-03T01:43:34.388Z,4.15
2023-02-03T01:47:53.471Z,5.15
2023-02-03T01:51:55.624Z,4.65
2023-02-03T01:55:58.068Z,5.60
2023-02-03T02:00:00.984Z,3.63
2023-02-03T02:04:04.383Z,5.90
2023-02-03T02:08:07.362Z,5.22
2023-02-03T02:12:11.262Z,4.10
2023-02-03T02:16:22.481Z,5.25
2023-02-03T02:21:05.611Z,4.13
2023-02-03T02:25:36.479Z,6.28
2023-02-03T02:34:14.170Z,4.50
2023-02-03T02:38:37.295Z,3.60
2023-02-03T02:42:54.603Z,2.92
2023-02-03T02:47:05.882Z,2.00
2023-02-03T02:51:12.238Z,2.88
2023-02-03T02:55:32.606Z,3.90
2023-02-03T03:03:35.396Z,3.08
2023-02-03T03:07:44.950Z,2.08
2023-02-03T03:12:10.930Z,3.00
2023-02-03T03:16:15.122Z,3.05
2023-02-03T03:20:22.345Z,3.30
2023-02-03T03:24:29.747Z,2.35
2023-02-03T03:28:40.397Z,3.10
2023-02-03T03:32:41.920Z,2.70
2023-02-03T03:37:10.813Z,1.92
2023-02-03T03:41:23.825Z,1.73
2023-02-03T03:45:33.926Z,2.17
2023-02-03T03:49:37.439Z,1.83
2023-02-03T03:53:41.634Z,3.25
2023-02-03T03:57:54.962Z,2.80
2023-02-03T04:01:57.951Z,3.13
2023-02-03T04:05:59.489Z,2.55
2023-02-03T04:10:01.204Z,2.92
2023-02-03T04:14:02.915Z,2.30
2023-02-03T04:18:04.946Z,3.60
2023-02-03T04:22:06.581Z,2.92
2023-02-03T04:26:07.974Z,4.00
2023-02-03T04:30:10.522Z,4.28
2023-02-03T04:34:12.073Z,5.22
2023-02-03T04:38:13.495Z,3.97
2023-02-03T04:42:14.906Z,3.53
2023-02-03T04:46:16.586Z,5.20
2023-02-03T04:50:18.168Z,5.80
2023-02-03T04:54:19.645Z,7.70
2023-02-03T04:58:21.123Z,8.25
2023-02-03T05:02:22.579Z,6.90
2023-02-03T05:06:28.921Z,9.32
2023-02-03T05:10:30.415Z,7.72
2023-02-03T05:14:32.144Z,10.00
2023-02-03T05:18:33.579Z,9.80
2023-02-03T05:22:35.651Z,10.95
2023-02-03T05:26:37.188Z,10.90
2023-02-03T05:30:38.670Z,10.43
2023-02-03T05:34:42.066Z,12.07
2023-02-03T05:38:43.835Z,12.73
2023-02-03T05:42:49.351Z,11.65
2023-02-03T05:46:53.400Z,14.10
2023-02-03T05:51:03.682Z,10.75
2023-02-03T05:55:05.390Z,12.75
2023-02-03T05:59:07.137Z,10.07
2023-02-03T06:03:08.648Z,15.75
2023-02-03T06:07:10.482Z,8.52
2023-02-03T06:11:12.112Z,16.42
2023-02-03T06:15:13.859Z,13.48
2023-02-03T06:19:16.419Z,15.27
2023-02-03T06:23:19.026Z,15.20
2023-02-03T06:27:20.610Z,15.48
2023-02-03T06:31:22.326Z,8.68
2023-02-03T06:35:23.812Z,14.82
2023-02-03T06:39:25.259Z,15.07
2023-02-03T06:43:26.717Z,14.82
2023-02-03T06:47:28.175Z,13.93
2023-02-03T06:51:29.610Z,13.40
2023-02-03T06:55:31.059Z,12.68
2023-02-03T06:59:32.487Z,15.88
2023-02-03T07:03:34.418Z,14.55
2023-02-03T07:07:36.461Z,11.27
2023-02-03T07:11:37.942Z,15.45
2023-02-03T07:15:39.427Z,17.27
2023-02-03T07:19:40.925Z,12.90
2023-02-03T07:23:42.639Z,16.35
2023-02-03T07:28:23.502Z,13.00
2023-02-03T07:32:32.827Z,10.40
2023-02-03T07:36:35.864Z,11.25
2023-02-03T07:40:37.332Z,11.93
2023-02-03T07:44:39.163Z,11.70
2023-02-03T07:48:40.614Z,10.85
2023-02-03T07:52:42.024Z,9.82
2023-02-03T07:56:43.439Z,9.32
2023-02-03T08:00:45.271Z,9.27
2023-02-03T08:04:46.896Z,12.48
2023-02-03T08:08:48.340Z,10.45
2023-02-03T08:12:53.217Z,7.78
2023-02-03T08:16:54.673Z,8.80
2023-02-03T08:20:56.140Z,7.35
2023-02-03T08:24:58.672Z,6.47
2023-02-03T08:29:00.117Z,11.13
2023-02-03T08:33:01.536Z,7.45
2023-02-03T08:37:03.118Z,9.65
2023-02-03T08:41:14.230Z,6.05
2023-02-03T08:45:15.672Z,9.15
2023-02-03T08:49:17.219Z,10.20
2023-02-03T08:53:18.891Z,6.53
2023-02-03T08:57:20.697Z,6.88
2023-02-03T09:01:22.307Z,10.05
2023-02-03T09:05:23.822Z,8.02
2023-02-03T09:09:26.508Z,5.50
2023-02-03T09:13:27.888Z,4.93
2023-02-03T09:17:29.309Z,5.95
2023-02-03T09:21:37.064Z,5.82
2023-02-03T09:25:47.239Z,4.72
2023-02-03T09:29:50.030Z,3.15
2023-02-03T09:33:51.548Z,5.13
2023-02-03T09:37:53.093Z,4.95
2023-02-03T09:42:25.660Z,5.90
2023-02-03T09:46:32.585Z,4.43
2023-02-03T09:50:36.219Z,4.30
2023-02-03T09:54:50.404Z,3.58
2023-02-03T09:58:51.828Z,5.30
2023-02-03T10:02:56.694Z,5.65
2023-02-03T10:07:38.920Z,2.47
2023-02-03T10:11:55.570Z,4.63
2023-02-03T10:16:45.183Z,2.17
2023-02-03T10:20:54.987Z,2.83
2023-02-03T10:25:03.456Z,3.03
2023-02-03T10:29:27.746Z,2.80
2023-02-03T10:33:32.045Z,2.80
2023-02-03T10:37:41.798Z,1.95
2023-02-03T10:41:43.429Z,2.50
2023-02-03T10:45:44.873Z,1.67
2023-02-03T10:49:49.067Z,2.25
2023-02-03T10:53:53.447Z,2.15
2023-02-03T10:57:55.303Z,2.15
2023-02-03T11:01:57.169Z,2.03
2023-02-03T11:06:05.872Z,0.75
2023-02-03T11:10:27.517Z,0.73
2023-02-03T11:14:36.828Z,0.50
2023-02-03T11:18:55.346Z,2.58
2023-02-03T11:22:56.816Z,1.10
2023-02-03T11:27:06.816Z,2.25
2023-02-03T11:31:17.747Z,1.73
2023-02-03T11:35:28.429Z,1.88
2023-02-03T11:39:37.390Z,3.00
2023-02-03T11:43:38.974Z,1.53
2023-02-03T11:48:15.953Z,1.80
2023-02-03T11:52:45.031Z,2.85
2023-02-03T11:57:34.703Z,3.10
2023-02-03T12:02:05.666Z,2.10
2023-02-03T12:06:13.763Z,2.50
2023-02-03T12:10:27.420Z,2.95
2023-02-03T12:14:47.159Z,3.53
2023-02-03T12:19:16.110Z,3.33
2023-02-03T12:23:38.708Z,2.17
2023-02-03T12:28:16.021Z,2.08
2023-02-03T12:32:27.826Z,3.22
2023-02-03T12:36:59.020Z,3.90
2023-02-03T12:41:01.698Z,2.53
2023-02-03T12:45:13.291Z,1.98
2023-02-03T12:49:31.175Z,3.55
2023-02-03T12:53:41.423Z,2.50
2023-02-03T12:58:00.311Z,3.60
2023-02-03T13:02:14.182Z,3.17
2023-02-03T13:06:18.295Z,2.83
2023-02-03T13:10:27.405Z,3.20
2023-02-03T13:14:38.556Z,3.10
2023-02-03T13:18:45.922Z,2.20
2023-02-03T13:22:47.379Z,2.22
2023-02-03T13:27:16.105Z,2.97
2023-02-03T13:31:32.966Z,2.03
2023-02-03T13:35:53.292Z,2.10
2023-02-03T13:44:12.794Z,2.55
2023-02-03T13:48:23.492Z,2.30
2023-02-03T13:52:47.184Z,2.13
2023-02-03T13:57:02.273Z,2.53
2023-02-03T14:01:28.349Z,1.60
2023-02-03T14:05:49.608Z,2.83
2023-02-03T14:10:13.050Z,3.00
2023-02-03T14:14:17.323Z,3.08
2023-02-03T14:18:21.907Z,2.20
2023-02-03T14:22:23.538Z,1.83
2023-02-03T14:26:38.690Z,3.13
2023-02-03T14:31:12.345Z,2.80
2023-02-03T14:35:19.869Z,2.85
2023-02-03T14:39:33.552Z,3.50
2023-02-03T14:43:51.851Z,3.22
2023-02-03T14:48:11.611Z,2.58
2023-02-03T14:52:27.462Z,2.53
2023-02-03T14:57:06.371Z,3.15
2023-02-03T15:01:08.532Z,3.67
2023-02-03T15:05:19.335Z,3.17
2023-02-03T15:09:37.220Z,3.40
2023-02-03T15:13:38.915Z,3.72
2023-02-03T15:17:40.437Z,3.90
2023-02-03T15:21:42.420Z,3.80
2023-02-03T15:25:44.986Z,3.60
2023-02-03T15:29:46.412Z,3.42
2023-02-03T15:33:50.429Z,2.58
2023-02-03T15:37:56.499Z,3.35
2023-02-03T15:41:59.404Z,2.72
2023-02-03T15:46:12.751Z,1.73
2023-02-03T15:50:32.363Z,3.05
2023-02-03T15:54:41.369Z,1.95
2023-02-03T15:58:46.559Z,2.20
2023-02-03T16:02:48.091Z,3.22
2023-02-03T16:06:52.507Z,2.55
2023-02-03T16:10:54.147Z,3.08
2023-02-03T16:14:57.176Z,2.00
2023-02-03T16:19:03.731Z,4.22
2023-02-03T16:23:19.331Z,2.60
2023-02-03T16:27:27.018Z,3.22
2023-02-03T16:31:47.461Z,2.97
2023-02-03T16:36:07.299Z,4.53
2023-02-03T16:40:29.014Z,3.00
2023-02-03T16:44:48.777Z,3.45
2023-02-03T16:49:08.728Z,3.42
2023-02-03T16:53:14.033Z,3.47
2023-02-03T16:57:15.488Z,2.78
2023-02-03T17:01:17.116Z,4.22
2023-02-03T17:05:18.875Z,3.47
2023-02-03T17:09:24.947Z,3.78
2023-02-03T17:13:26.418Z,2.47
2023-02-03T17:17:27.827Z,3.65
2023-02-03T17:21:29.730Z,3.53
2023-02-03T17:25:34.060Z,2.30
2023-02-03T17:29:35.488Z,2.78
2023-02-03T17:33:37.059Z,3.80
2023-02-03T17:37:38.582Z,3.58
2023-02-03T17:54:38.135Z,4.18
2023-02-03T17:58:40.473Z,3.33
2023-02-03T18:02:43.191Z,2.88
2023-02-03T18:06:46.230Z,3.60
2023-02-03T18:10:47.680Z,2.60
2023-02-03T18:14:49.385Z,3.13
2023-02-03T18:18:52.641Z,2.80
2023-02-03T18:22:54.077Z,3.08
2023-02-03T18:26:55.740Z,3.83
2023-02-03T18:31:02.965Z,4.65
2023-02-03T18:35:06.625Z,2.28
2023-02-03T18:39:10.222Z,3.22
2023-02-03T18:43:13.780Z,2.90
2023-02-03T18:47:15.254Z,2.72
2023-02-03T18:51:18.774Z,2.78
2023-02-03T18:55:20.236Z,2.90
2023-02-03T18:59:21.652Z,2.38
2023-02-03T19:03:24.793Z,2.97
2023-02-03T19:07:26.303Z,2.38
2023-02-03T19:11:27.804Z,4.00
2023-02-03T19:15:29.312Z,2.90
2023-02-03T19:19:30.770Z,2.92
2023-02-03T19:23:32.495Z,2.33
2023-02-03T19:27:33.940Z,2.67
2023-02-03T19:31:35.805Z,2.30
2023-02-03T19:35:38.486Z,2.67
2023-02-03T19:39:39.932Z,2.38
2023-02-03T19:43:41.511Z,1.88
2023-02-03T19:47:43.081Z,2.85
2023-02-03T19:51:45.265Z,2.40
2023-02-03T19:55:47.071Z,1.83
2023-02-03T19:59:48.478Z,2.42
2023-02-03T20:03:50.784Z,3.15
2023-02-03T20:07:53.128Z,2.40
2023-02-03T20:11:56.123Z,2.00
2023-02-03T20:15:58.035Z,1.48
2023-02-03T20:19:59.559Z,2.10
2023-02-03T20:24:01.027Z,2.60
2023-02-03T20:28:03.753Z,2.08
2023-02-03T20:32:07.241Z,2.17
2023-02-03T20:36:11.510Z,1.40
2023-02-03T20:40:17.324Z,1.58
2023-02-03T20:44:18.945Z,2.40
2023-02-03T20:48:23.697Z,1.75
2023-02-03T20:52:25.150Z,2.15
2023-02-03T20:56:26.824Z,2.05
2023-02-03T21:00:29.306Z,1.80
2023-02-03T21:04:49.533Z,1.33
2023-02-03T21:08:51.019Z,1.10
2023-02-03T21:12:52.969Z,1.90
2023-02-03T21:16:54.777Z,1.92
2023-02-03T21:20:56.730Z,1.58
2023-02-03T21:25:00.273Z,1.40
2023-02-03T21:29:02.280Z,1.95
2023-02-03T21:33:35.254Z,1.63
2023-02-03T21:37:41.506Z,0.90
2023-02-03T21:41:42.966Z,1.35
2023-02-03T21:45:45.020Z,0.80
2023-02-03T21:49:46.496Z,0.82
2023-02-03T21:53:53.441Z,0.95
2023-02-03T21:57:54.903Z,1.00
2023-02-03T22:01:59.936Z,1.30
2023-02-03T22:06:19.667Z,1.58
2023-02-03T22:10:21.105Z,0.70
2023-02-03T22:14:22.631Z,0.80
2023-02-03T22:18:24.664Z,1.13
2023-02-03T22:22:26.068Z,0.88
2023-02-03T22:26:27.666Z,0.85
2023-02-03T22:30:29.723Z,0.98
2023-02-03T22:34:31.339Z,1.15
2023-02-03T22:38:34.320Z,2.10
2023-02-03T22:42:35.778Z,1.17
2023-02-03T22:46:37.255Z,0.80
2023-02-03T22:50:38.974Z,0.98
2023-02-03T22:54:42.723Z,1.23
2023-02-03T22:58:44.405Z,1.30
2023-02-03T23:02:46.086Z,1.17
2023-02-03T23:06:49.221Z,1.05
2023-02-03T23:10:50.805Z,1.13
2023-02-03T23:14:52.199Z,1.30
2023-02-03T23:18:53.959Z,1.77
2023-02-03T23:22:55.482Z,1.60
2023-02-03T23:26:56.971Z,1.23
2023-02-03T23:30:58.489Z,1.13
2023-02-03T23:35:19.579Z,1.38
2023-02-03T23:39:21.882Z,1.08
2023-02-03T23:43:23.324Z,1.27
2023-02-03T23:47:24.820Z,1.02
2023-02-03T23:51:26.260Z,1.50
2023-02-03T23:55:29.294Z,1.40
2023-02-03T23:59:31.156Z,1.52
